Time;durP1;ratioP1;P1;durP2;ratioP2;P2;SDS_P1;SDS_P2;PMS_P1;PMS_P2;Temp;Humidity;BMP_temperature;BMP_pressure;BME280_temperature;BME280_humidity;BME280_pressure;Samples;Min_cycle;Max_cycle;Signal;HPM_P1;HPM_P2
2022/05/30 00:01:10;;;;;;;6.45;0.70;;;10.00;99.90;;;;;;4972959;28;20022;-84
2022/05/30 00:03:36;;;;;;;8.85;1.13;;;10.00;99.90;;;;;;4970339;28;20399;-85
2022/05/30 00:06:02;;;;;;;5.25;0.68;;;10.00;99.90;;;;;;4970336;28;20031;-85
2022/05/30 00:08:27;;;;;;;6.50;0.80;;;9.90;99.90;;;;;;4965720;28;20026;-85
2022/05/30 00:10:53;;;;;;;3.45;0.60;;;9.90;99.90;;;;;;4964071;28;20055;-85
2022/05/30 00:13:18;;;;;;;7.40;0.80;;;9.80;99.90;;;;;;4972791;28;20033;-85
2022/05/30 00:15:44;;;;;;;9.75;0.98;;;9.70;99.90;;;;;;4972302;28;20053;-85
2022/05/30 00:18:12;;;;;;;4.93;0.52;;;9.70;99.90;;;;;;4970488;28;20041;-85
2022/05/30 00:20:42;;;;;;;4.95;0.65;;;9.60;99.90;;;;;;4972710;28;20019;-85
2022/05/30 00:23:07;;;;;;;4.57;0.70;;;9.50;99.90;;;;;;4975311;28;20537;-85
2022/05/30 00:25:33;;;;;;;5.68;0.80;;;9.40;99.90;;;;;;4969988;28;20564;-85
2022/05/30 00:27:59;;;;;;;5.50;0.70;;;9.30;99.90;;;;;;4970216;28;20027;-85
2022/05/30 00:30:24;;;;;;;5.15;0.95;;;9.20;99.90;;;;;;4965987;28;20027;-85
2022/05/30 00:32:50;;;;;;;7.82;0.70;;;9.10;99.90;;;;;;4966767;28;20061;-86
2022/05/30 00:35:15;;;;;;;4.75;0.88;;;9.10;99.90;;;;;;4975351;28;20034;-85
2022/05/30 00:37:41;;;;;;;9.32;0.95;;;8.90;99.90;;;;;;4970048;28;20031;-86
2022/05/30 00:40:07;;;;;;;6.85;0.80;;;8.80;99.90;;;;;;4965997;28;20031;-85
2022/05/30 00:42:33;;;;;;;6.88;0.70;;;8.70;99.90;;;;;;4989249;28;20062;-85
2022/05/30 00:44:59;;;;;;;7.80;0.82;;;8.60;99.90;;;;;;4966148;28;20022;-86
2022/05/30 00:47:25;;;;;;;6.93;0.80;;;8.50;99.90;;;;;;4972167;28;20038;-85
2022/05/30 00:49:51;;;;;;;8.80;1.05;;;8.50;99.90;;;;;;4969229;28;20023;-85
2022/05/30 00:52:36;;;;;;;10.38;1.30;;;8.40;99.90;;;;;;4966196;28;20146;-85
2022/05/30 00:55:06;;;;;;;7.35;0.80;;;8.40;99.90;;;;;;4987314;28;20068;-85
2022/05/30 00:57:33;;;;;;;4.82;0.98;;;8.30;99.90;;;;;;4964440;28;20443;-85
2022/05/30 01:00:03;;;;;;;6.90;1.67;;;8.30;99.90;;;;;;4988045;28;20393;-85
2022/05/30 01:02:32;;;;;;;11.65;1.15;;;8.20;99.90;;;;;;4984904;28;20027;-85
2022/05/30 01:07:44;;;;;;;8.35;1.08;;;8.10;99.90;;;;;;4989640;28;20150;-85
2022/05/30 01:10:14;;;;;;;7.45;0.95;;;8.00;99.90;;;;;;4991624;28;20101;-84
2022/05/30 01:12:49;;;;;;;7.47;1.55;;;7.90;99.90;;;;;;4991557;28;20027;-85
2022/05/30 01:15:17;;;;;;;11.45;1.52;;;8.00;99.90;;;;;;4964490;28;20482;-85
2022/05/30 01:17:49;;;;;;;9.98;1.67;;;7.90;99.90;;;;;;4969100;28;20118;-86
2022/05/30 01:20:39;;;;;;;8.45;1.10;;;7.80;99.90;;;;;;4986317;28;20027;-85
2022/05/30 01:23:18;;;;;;;7.13;1.60;;;7.80;99.90;;;;;;4971748;28;20035;-85
2022/05/30 01:26:14;;;;;;;6.07;1.02;;;7.70;99.90;;;;;;4965898;28;20039;-84
2022/05/30 01:29:01;;;;;;;6.90;1.17;;;7.60;99.90;;;;;;4963272;28;20033;-84
2022/05/30 01:31:28;;;;;;;6.05;1.50;;;7.50;99.90;;;;;;4985267;28;20031;-85
2022/05/30 01:33:53;;;;;;;6.25;0.88;;;7.50;99.90;;;;;;4988947;28;20645;-85
2022/05/30 01:36:24;;;;;;;5.20;1.20;;;7.40;99.90;;;;;;4986604;28;20172;-85
2022/05/30 01:38:50;;;;;;;6.43;0.95;;;7.30;99.90;;;;;;4986633;28;20513;-84
2022/05/30 01:41:16;;;;;;;4.82;1.02;;;7.20;99.90;;;;;;4963335;28;20023;-85
2022/05/30 01:43:41;;;;;;;5.45;1.20;;;7.10;99.90;;;;;;4990456;28;20026;-84
2022/05/30 01:46:10;;;;;;;6.47;1.55;;;7.00;99.90;;;;;;4991073;28;21462;-84
2022/05/30 01:48:36;;;;;;;8.23;1.35;;;7.00;99.90;;;;;;4984972;28;20065;-84
2022/05/30 01:51:02;;;;;;;8.10;1.63;;;6.90;99.90;;;;;;4968680;28;20061;-85
2022/05/30 01:53:28;;;;;;;6.00;1.40;;;6.90;99.90;;;;;;4942340;28;20127;-85
2022/05/30 01:55:53;;;;;;;10.95;1.67;;;6.80;99.90;;;;;;4944864;29;20054;-85
2022/05/30 01:58:19;;;;;;;5.57;1.83;;;6.80;99.90;;;;;;4950611;29;20027;-84
2022/05/30 02:00:45;;;;;;;7.72;1.70;;;6.70;99.90;;;;;;4951099;29;20031;-85
2022/05/30 02:03:10;;;;;;;7.00;1.80;;;6.70;99.90;;;;;;4945384;29;20035;-85
2022/05/30 02:05:36;;;;;;;9.73;1.70;;;6.70;99.90;;;;;;4944210;29;20051;-85
2022/05/30 02:08:02;;;;;;;9.63;1.90;;;6.60;99.90;;;;;;4943444;29;20114;-86
2022/05/30 02:10:31;;;;;;;8.90;2.13;;;6.60;99.90;;;;;;4951305;29;20400;-85
2022/05/30 02:12:57;;;;;;;6.63;1.88;;;6.60;99.90;;;;;;4948898;29;21146;-85
2022/05/30 02:15:23;;;;;;;6.57;2.05;;;6.50;99.90;;;;;;4947909;29;20027;-85
2022/05/30 02:17:48;;;;;;;6.72;1.65;;;6.50;99.90;;;;;;4947932;29;20794;-85
2022/05/30 02:20:14;;;;;;;5.47;2.20;;;6.50;99.90;;;;;;4964146;28;20114;-84
2022/05/30 02:22:40;;;;;;;4.85;1.63;;;6.40;99.90;;;;;;4946752;29;20115;-85
2022/05/30 02:25:06;;;;;;;7.80;2.17;;;6.40;99.90;;;;;;4948228;29;20494;-85
2022/05/30 02:27:32;;;;;;;5.93;1.60;;;6.40;99.90;;;;;;4946414;29;20039;-85
2022/05/30 02:29:57;;;;;;;7.68;2.10;;;6.40;99.90;;;;;;4946500;29;20027;-84
2022/05/30 02:32:23;;;;;;;4.45;2.00;;;6.40;99.90;;;;;;4965723;28;20121;-84
2022/05/30 02:37:33;;;;;;;4.75;1.52;;;6.30;99.90;;;;;;4948032;29;20050;-84
2022/05/30 02:39:58;;;;;;;3.35;1.25;;;6.30;99.90;;;;;;4939101;29;20027;-84
2022/05/30 02:42:24;;;;;;;9.10;1.90;;;6.20;99.90;;;;;;4949701;29;20146;-84
2022/05/30 02:44:50;;;;;;;7.43;1.90;;;6.20;99.90;;;;;;4948268;29;20057;-84
2022/05/30 02:47:17;;;;;;;7.45;2.15;;;6.20;99.90;;;;;;4948403;28;20170;-85
2022/05/30 02:49:43;;;;;;;7.78;1.83;;;6.20;99.90;;;;;;4947376;29;20035;-84
2022/05/30 02:52:09;;;;;;;7.07;2.08;;;6.20;99.90;;;;;;4943685;28;20492;-84
2022/05/30 02:54:34;;;;;;;7.15;2.08;;;6.20;99.90;;;;;;4945174;29;20031;-84
2022/05/30 02:57:00;;;;;;;7.70;2.03;;;6.20;99.90;;;;;;4967196;28;20033;-85
2022/05/30 02:59:27;;;;;;;7.88;2.15;;;6.30;99.90;;;;;;4944456;29;20037;-85
2022/05/30 03:01:53;;;;;;;5.20;2.53;;;6.40;99.90;;;;;;4946605;28;20514;-84
2022/05/30 03:04:19;;;;;;;7.90;1.98;;;6.40;99.90;;;;;;4951496;29;20035;-84
2022/05/30 03:06:45;;;;;;;10.98;2.58;;;6.50;99.90;;;;;;4947094;29;20031;-84
2022/05/30 03:09:12;;;;;;;12.35;2.60;;;6.50;99.90;;;;;;4949009;28;20106;-85
2022/05/30 03:11:38;;;;;;;8.75;2.10;;;6.50;99.90;;;;;;4943133;29;20444;-85
2022/05/30 03:14:03;;;;;;;11.95;2.70;;;6.50;99.90;;;;;;4955348;28;20074;-85
2022/05/30 03:16:29;;;;;;;9.20;2.90;;;6.50;99.90;;;;;;4948121;29;20026;-84
2022/05/30 03:18:55;;;;;;;10.70;2.25;;;6.50;99.90;;;;;;4949546;29;20027;-84
2022/05/30 03:21:21;;;;;;;6.38;1.98;;;6.50;99.90;;;;;;4952731;29;20031;-85
2022/05/30 03:23:46;;;;;;;8.77;2.63;;;6.50;99.90;;;;;;4948724;29;20027;-85
2022/05/30 03:26:13;;;;;;;6.93;2.15;;;6.50;99.90;;;;;;4950516;29;20039;-85
2022/05/30 03:28:38;;;;;;;6.03;1.02;;;6.50;99.90;;;;;;4951282;29;20035;-84
2022/05/30 03:31:07;;;;;;;3.15;0.80;;;6.40;99.90;;;;;;4945251;29;20082;-85
2022/05/30 03:33:33;;;;;;;3.78;1.00;;;6.40;99.90;;;;;;4943069;29;20035;-85
2022/05/30 03:35:58;;;;;;;5.25;1.13;;;6.30;99.90;;;;;;4946465;29;20093;-85
2022/05/30 03:38:24;;;;;;;8.23;1.67;;;6.20;99.90;;;;;;4942842;29;20027;-85
2022/05/30 03:40:49;;;;;;;6.07;1.42;;;6.20;99.90;;;;;;4952022;29;20605;-86
2022/05/30 03:43:15;;;;;;;5.18;1.70;;;6.10;99.90;;;;;;4950477;29;20026;-85
2022/05/30 03:45:43;;;;;;;5.63;2.33;;;6.20;99.90;;;;;;4952715;28;20039;-87
2022/05/30 03:48:10;;;;;;;5.78;1.85;;;6.10;99.90;;;;;;4948116;28;20137;-85
2022/05/30 03:50:38;;;;;;;6.70;2.40;;;6.20;99.90;;;;;;4946174;29;20023;-85
2022/05/30 03:53:07;;;;;;;7.13;1.90;;;6.20;99.90;;;;;;4946122;28;20052;-86
2022/05/30 03:55:35;;;;;;;8.07;2.05;;;6.20;99.90;;;;;;4949501;29;20028;-86
2022/05/30 03:58:05;;;;;;;4.35;1.90;;;6.20;99.90;;;;;;4948267;29;20463;-85
2022/05/30 04:00:32;;;;;;;4.57;2.00;;;6.20;99.90;;;;;;4952342;29;20039;-86
2022/05/30 04:02:58;;;;;;;5.22;1.65;;;6.20;99.90;;;;;;4950451;29;20051;-86
2022/05/30 04:05:24;;;;;;;6.28;2.25;;;6.30;99.90;;;;;;4950149;28;20051;-86
2022/05/30 04:07:50;;;;;;;4.82;1.83;;;6.40;99.90;;;;;;4951871;28;20034;-86
2022/05/30 04:10:16;;;;;;;7.82;2.70;;;6.40;99.90;;;;;;4949524;29;20399;-87
2022/05/30 04:12:42;;;;;;;6.07;2.55;;;6.50;99.90;;;;;;4950154;29;20047;-85
2022/05/30 04:15:15;;;;;;;10.18;2.60;;;6.60;99.90;;;;;;4948995;29;20035;-87
2022/05/30 04:17:40;;;;;;;;;;;6.60;99.90;;;;;;4950952;29;20406;-86
2022/05/30 04:20:06;;;;;;;7.50;2.22;;;6.70;99.90;;;;;;4946418;29;19911;-87
2022/05/30 04:22:33;;;;;;;8.13;2.00;;;6.70;99.90;;;;;;4945745;29;20046;-86
2022/05/30 04:24:58;;;;;;;7.60;2.00;;;6.70;99.90;;;;;;4948339;29;20083;-86
2022/05/30 04:27:24;;;;;;;4.78;2.15;;;6.80;99.90;;;;;;4949278;29;20121;-86
2022/05/30 04:29:50;;;;;;;8.57;2.05;;;6.80;99.90;;;;;;4940328;29;20034;-86
2022/05/30 04:32:16;;;;;;;5.35;2.05;;;6.80;99.90;;;;;;4953374;28;20027;-86
2022/05/30 04:34:42;;;;;;;12.60;2.45;;;6.80;99.90;;;;;;4944902;29;20490;-86
2022/05/30 04:37:08;;;;;;;5.40;2.20;;;6.80;99.90;;;;;;4946160;29;20031;-85
2022/05/30 04:39:35;;;;;;;8.30;2.63;;;6.80;99.90;;;;;;4946772;29;20098;-86
2022/05/30 04:42:00;;;;;;;6.20;2.30;;;6.80;99.90;;;;;;4952329;29;20023;-85
2022/05/30 04:44:26;;;;;;;7.40;2.60;;;6.80;99.90;;;;;;4946595;29;20031;-86
2022/05/30 04:46:56;;;;;;;9.30;2.78;;;6.80;99.90;;;;;;4946097;29;20046;-85
2022/05/30 04:49:22;;;;;;;6.90;2.75;;;6.80;99.90;;;;;;4956035;28;20472;-86
2022/05/30 04:51:49;;;;;;;6.47;2.67;;;6.80;99.90;;;;;;4959814;28;20051;-86
2022/05/30 04:54:16;;;;;;;10.65;3.30;;;6.90;99.90;;;;;;4945857;29;20929;-86
2022/05/30 04:56:41;;;;;;;6.35;2.92;;;6.90;99.90;;;;;;4950197;29;20028;-86
2022/05/30 04:59:07;;;;;;;11.98;3.28;;;6.90;99.90;;;;;;4946438;29;20031;-86
2022/05/30 05:01:33;;;;;;;7.20;3.00;;;7.00;99.90;;;;;;4946833;29;20032;-87
2022/05/30 05:03:59;;;;;;;8.70;3.70;;;7.00;99.90;;;;;;4944083;29;20074;-87
2022/05/30 05:06:25;;;;;;;8.13;3.28;;;7.00;99.90;;;;;;4947388;29;20043;-85
2022/05/30 05:08:50;;;;;;;7.13;3.05;;;7.20;99.90;;;;;;4946789;29;20023;-85
2022/05/30 05:11:29;;;;;;;8.43;3.28;;;7.40;99.90;;;;;;4946662;29;20027;-85
2022/05/30 05:13:55;;;;;;;8.50;2.83;;;7.80;99.90;;;;;;4941262;29;20024;-85
2022/05/30 05:16:24;;;;;;;5.38;2.42;;;8.10;99.90;;;;;;4946766;29;20555;-85
2022/05/30 05:18:49;;;;;;;4.80;2.50;;;8.40;99.90;;;;;;4945349;28;20031;-85
2022/05/30 05:21:21;;;;;;;7.80;2.35;;;8.60;99.90;;;;;;4951060;29;20089;-85
2022/05/30 05:23:47;;;;;;;10.77;3.10;;;8.90;99.90;;;;;;4947952;28;20020;-85
2022/05/30 05:26:13;;;;;;;7.68;1.83;;;9.10;99.90;;;;;;4946926;28;20407;-86
2022/05/30 05:28:39;;;;;;;5.82;1.55;;;9.40;99.90;;;;;;4947396;29;20078;-86
2022/05/30 05:31:07;;;;;;;6.90;2.30;;;9.70;99.90;;;;;;4943422;29;20027;-87
2022/05/30 05:33:32;;;;;;;8.10;1.88;;;9.80;99.90;;;;;;4946904;29;20035;-86
2022/05/30 05:35:58;;;;;;;8.05;1.80;;;9.90;99.90;;;;;;4943224;29;20398;-85
2022/05/30 05:38:23;;;;;;;4.60;1.40;;;10.00;99.90;;;;;;4944944;29;20035;-86
2022/05/30 05:40:49;;;;;;;4.35;1.58;;;10.10;99.90;;;;;;4942294;29;20027;-86
2022/05/30 05:43:14;;;;;;;4.72;1.70;;;10.20;99.90;;;;;;4949260;29;20038;-85
2022/05/30 05:45:42;;;;;;;4.95;1.60;;;10.30;99.90;;;;;;4946251;29;20086;-86
2022/05/30 05:48:09;;;;;;;6.15;2.00;;;10.30;99.90;;;;;;4965662;28;20024;-86
2022/05/30 05:50:38;;;;;;;6.78;1.63;;;10.40;99.90;;;;;;4947281;29;20031;-86
2022/05/30 05:53:04;;;;;;;8.57;1.88;;;10.50;99.90;;;;;;4961804;28;20039;-86
2022/05/30 05:55:29;;;;;;;7.65;1.60;;;10.60;99.90;;;;;;4965044;28;20034;-86
2022/05/30 05:57:55;;;;;;;5.60;1.73;;;10.60;99.90;;;;;;4961395;28;20038;-86
2022/05/30 06:00:21;;;;;;;5.47;1.92;;;10.60;99.90;;;;;;4963815;28;20065;-85
2022/05/30 06:02:46;;;;;;;5.00;1.75;;;10.70;99.90;;;;;;4967501;28;20498;-86
2022/05/30 06:05:12;;;;;;;7.65;2.72;;;10.60;99.90;;;;;;4979520;28;20023;-86
2022/05/30 06:07:40;;;;;;;43.15;4.80;;;10.60;99.90;;;;;;4973261;28;20030;-86
2022/05/30 06:10:07;;;;;;;8.40;2.00;;;10.60;99.90;;;;;;4971927;28;20117;-86
2022/05/30 06:12:38;;;;;;;5.70;1.85;;;10.60;99.90;;;;;;4973258;28;20038;-85
2022/05/30 06:15:04;;;;;;;5.80;1.60;;;10.70;99.90;;;;;;4965212;28;20034;-86
2022/05/30 06:17:32;;;;;;;8.68;1.80;;;10.70;99.90;;;;;;4972149;28;20027;-86
2022/05/30 06:19:59;;;;;;;4.50;1.17;;;10.80;99.90;;;;;;4980817;28;20542;-85
2022/05/30 06:22:25;;;;;;;9.27;1.40;;;10.80;99.90;;;;;;4967890;28;20081;-86
2022/05/30 06:24:50;;;;;;;5.85;1.10;;;10.90;99.90;;;;;;4960087;28;20023;-86
2022/05/30 06:27:18;;;;;;;7.80;0.70;;;11.00;99.90;;;;;;4965031;28;20035;-86
2022/05/30 06:29:44;;;;;;;7.45;1.20;;;11.10;99.90;;;;;;4970848;28;20384;-86
2022/05/30 06:32:10;;;;;;;6.32;1.00;;;11.20;99.90;;;;;;4983957;28;20035;-86
2022/05/30 06:34:36;;;;;;;7.78;1.02;;;11.30;99.90;;;;;;4969684;28;20023;-86
2022/05/30 06:37:01;;;;;;;5.35;1.10;;;11.40;99.90;;;;;;4962046;28;20387;-85
2022/05/30 06:39:27;;;;;;;4.05;0.85;;;11.60;99.90;;;;;;4959150;28;20487;-86
2022/05/30 06:41:53;;;;;;;6.05;1.13;;;11.70;99.90;;;;;;4955483;28;20034;-85
2022/05/30 06:44:19;;;;;;;7.43;1.08;;;11.90;99.90;;;;;;4970644;28;20500;-85
2022/05/30 06:46:45;;;;;;;6.53;1.17;;;12.00;99.90;;;;;;4972667;28;20046;-85
2022/05/30 06:49:10;;;;;;;4.38;0.90;;;12.20;99.90;;;;;;4964082;28;20137;-85
2022/05/30 06:51:37;;;;;;;8.02;1.08;;;12.30;99.90;;;;;;4958468;28;20043;-85
2022/05/30 06:54:07;;;;;;;8.32;1.42;;;12.40;99.90;;;;;;4960091;28;20030;-84
2022/05/30 06:56:35;;;;;;;5.85;1.00;;;12.50;99.90;;;;;;4970393;28;20037;-85
2022/05/30 06:59:01;;;;;;;3.30;0.57;;;12.70;99.90;;;;;;4958216;28;20022;-86
2022/05/30 07:01:34;;;;;;;4.25;0.82;;;12.80;99.90;;;;;;4972133;28;20372;-85
2022/05/30 07:03:59;;;;;;;3.55;0.75;;;12.90;99.90;;;;;;4966696;28;20038;-85
2022/05/30 07:06:33;;;;;;;3.08;0.52;;;13.10;99.90;;;;;;4961435;28;20043;-85
2022/05/30 07:08:59;;;;;;;7.72;0.60;;;13.30;99.90;;;;;;4954623;28;20065;-85
2022/05/30 07:11:25;;;;;;;3.15;0.43;;;13.40;99.90;;;;;;4965527;28;20023;-85
2022/05/30 07:13:51;;;;;;;1.58;0.50;;;13.60;99.90;;;;;;4968482;28;20091;-85
2022/05/30 07:16:18;;;;;;;4.82;0.40;;;13.70;99.90;;;;;;4954258;28;20480;-86
2022/05/30 07:18:44;;;;;;;4.90;0.50;;;13.70;99.90;;;;;;4961013;28;20452;-86
2022/05/30 07:21:12;;;;;;;2.92;0.30;;;13.80;99.90;;;;;;4964339;28;20033;-86
2022/05/30 07:23:37;;;;;;;4.00;0.40;;;13.90;99.90;;;;;;4968458;28;20024;-87
2022/05/30 07:26:08;;;;;;;4.47;0.47;;;13.90;99.90;;;;;;4970281;28;20066;-86
2022/05/30 07:28:34;;;;;;;4.93;0.20;;;14.10;99.90;;;;;;4971595;28;20027;-87
2022/05/30 07:31:11;;;;;;;5.10;0.45;;;14.10;99.90;;;;;;4971024;28;20027;-86
2022/05/30 07:33:38;;;;;;;3.03;0.40;;;14.20;99.90;;;;;;4976831;28;20396;-85
2022/05/30 07:36:08;;;;;;;4.78;0.38;;;14.20;99.90;;;;;;4964234;28;20031;-87
2022/05/30 07:38:34;;;;;;;4.32;0.50;;;14.20;99.90;;;;;;4973626;28;20019;-87
2022/05/30 07:41:00;;;;;;;3.17;0.28;;;14.10;99.90;;;;;;4971150;28;20495;-87
2022/05/30 07:43:25;;;;;;;2.50;0.50;;;14.00;99.90;;;;;;4992720;28;20077;-86
2022/05/30 07:45:51;;;;;;;2.83;0.28;;;13.80;99.90;;;;;;4969858;28;20147;-87
2022/05/30 07:48:16;;;;;;;2.08;0.20;;;13.70;99.90;;;;;;4962884;28;20415;-86
2022/05/30 07:50:42;;;;;;;2.90;0.45;;;13.70;99.90;;;;;;4958579;28;20039;-86
2022/05/30 07:53:08;;;;;;;3.70;0.20;;;13.70;99.90;;;;;;4986913;28;20204;-87
2022/05/30 07:55:34;;;;;;;2.53;0.13;;;13.70;99.90;;;;;;4975426;28;20041;-87
2022/05/30 07:58:04;;;;;;;2.10;0.20;;;13.70;99.90;;;;;;4970252;28;20110;-86
2022/05/30 08:00:32;;;;;;;5.50;0.25;;;13.80;99.90;;;;;;4967540;28;20026;-85
2022/05/30 08:02:58;;;;;;;1.80;0.20;;;13.80;99.90;;;;;;4994748;28;20050;-85
2022/05/30 08:05:24;;;;;;;5.32;0.30;;;13.90;99.90;;;;;;4977890;28;20076;-85
2022/05/30 08:07:52;;;;;;;4.78;0.20;;;13.90;99.90;;;;;;4964253;28;20031;-86
2022/05/30 08:10:18;;;;;;;2.47;0.30;;;13.90;99.90;;;;;;4959863;28;20019;-85
2022/05/30 08:12:43;;;;;;;4.70;0.10;;;13.80;99.90;;;;;;4971942;28;20035;-85
2022/05/30 08:15:10;;;;;;;5.95;1.10;;;13.90;99.90;;;;;;4977831;28;20045;-85
2022/05/30 08:17:36;;;;;;;2.75;0.10;;;14.10;99.90;;;;;;4978303;28;20105;-85
2022/05/30 08:20:04;;;;;;;3.65;0.10;;;14.20;99.90;;;;;;4992943;28;20105;-85
2022/05/30 08:22:33;;;;;;;1.25;0.10;;;14.50;99.00;;;;;;4971912;28;20054;-86
2022/05/30 08:24:58;;;;;;;2.40;0.10;;;14.70;98.40;;;;;;4989906;28;20084;-85
2022/05/30 08:27:24;;;;;;;1.95;0.10;;;14.90;98.00;;;;;;4969779;28;20485;-85
2022/05/30 08:29:49;;;;;;;1.00;0.20;;;15.20;97.40;;;;;;4976310;28;20031;-85
2022/05/30 08:32:15;;;;;;;2.45;0.10;;;15.40;97.00;;;;;;4977833;28;20037;-85
2022/05/30 08:34:42;;;;;;;2.53;0.15;;;15.50;96.20;;;;;;4970906;28;20027;-85
2022/05/30 08:37:08;;;;;;;3.78;0.20;;;15.60;95.80;;;;;;4965613;28;20027;-85
2022/05/30 08:42:31;;;;;;;3.53;0.10;;;16.20;94.90;;;;;;4994813;28;20025;-85
2022/05/30 08:44:57;;;;;;;1.65;0.10;;;16.60;94.20;;;;;;4964803;28;20054;-85
2022/05/30 08:47:47;;;;;;;4.22;0.20;;;16.70;93.30;;;;;;4958487;28;20035;-85
2022/05/30 08:50:27;;;;;;;1.50;0.20;;;16.70;92.70;;;;;;4970072;28;20061;-85
2022/05/30 08:52:55;;;;;;;1.92;0.25;;;16.60;92.40;;;;;;4975107;28;20074;-85
2022/05/30 08:55:39;;;;;;;1.95;0.15;;;16.30;92.60;;;;;;5005643;28;20049;-85
2022/05/30 08:58:17;;;;;;;4.03;0.25;;;16.30;92.60;;;;;;4968612;28;20034;-86
2022/05/30 09:01:22;;;;;;;3.63;0.20;;;16.20;92.20;;;;;;4977152;28;20045;-85
2022/05/30 09:04:08;;;;;;;2.95;0.30;;;16.10;92.10;;;;;;4931730;28;20049;-85
2022/05/30 09:06:49;;;;;;;4.35;0.20;;;15.90;92.20;;;;;;4959132;28;20491;-85
2022/05/30 09:09:32;;;;;;;2.60;0.20;;;15.90;91.80;;;;;;4960954;28;20541;-85
2022/05/30 09:12:08;;;;;;;3.72;0.30;;;15.90;92.00;;;;;;4976119;28;20073;-85
2022/05/30 09:14:43;;;;;;;3.42;0.20;;;16.00;91.70;;;;;;4968276;28;20444;-85
2022/05/30 09:17:35;;;;;;;2.90;0.20;;;15.90;91.60;;;;;;4970684;28;20092;-84
2022/05/30 09:20:06;;;;;;;3.22;0.20;;;15.80;91.30;;;;;;4977226;28;20018;-86
2022/05/30 09:22:32;;;;;;;1.83;0.20;;;15.70;91.60;;;;;;4977264;28;20030;-86
2022/05/30 09:27:42;;;;;;;1.55;0.20;;;15.80;91.10;;;;;;4992785;28;20553;-86
2022/05/30 09:30:09;;;;;;;2.95;0.30;;;15.90;91.00;;;;;;4981619;28;20031;-87
2022/05/30 09:32:46;;;;;;;2.60;0.30;;;16.00;91.00;;;;;;4968093;28;20111;-86
2022/05/30 09:35:25;;;;;;;3.55;0.60;;;16.10;90.70;;;;;;4976543;28;20110;-86
2022/05/30 09:38:08;;;;;;;1.00;0.20;;;16.40;90.80;;;;;;4976472;28;20030;-85
2022/05/30 09:40:44;;;;;;;2.55;0.20;;;16.50;90.40;;;;;;4990012;28;20064;-83
2022/05/30 09:43:22;;;;;;;1.25;0.20;;;16.50;90.10;;;;;;4971807;28;20364;-84
2022/05/30 09:45:48;;;;;;;3.30;0.20;;;16.60;90.10;;;;;;4975545;28;20034;-86
2022/05/30 09:48:18;;;;;;;1.75;0.25;;;16.70;89.60;;;;;;4959630;28;20031;-87
2022/05/30 09:50:50;;;;;;;3.80;0.20;;;16.90;89.10;;;;;;4972626;28;20526;-86
2022/05/30 09:53:49;;;;;;;2.58;0.20;;;17.10;87.70;;;;;;4970360;28;20050;-86
2022/05/30 09:56:20;;;;;;;4.75;0.20;;;17.30;87.10;;;;;;4959149;28;20034;-86
2022/05/30 09:58:59;;;;;;;1.73;0.30;;;17.30;86.90;;;;;;4966276;28;20077;-86
2022/05/30 10:01:27;;;;;;;0.93;0.10;;;17.50;86.50;;;;;;4965874;28;20023;-86
2022/05/30 10:03:56;;;;;;;1.40;0.20;;;17.50;86.10;;;;;;4964418;28;20033;-86
2022/05/30 10:06:25;;;;;;;3.10;0.40;;;17.70;84.10;;;;;;5004955;28;20088;-87
2022/05/30 10:09:08;;;;;;;3.22;0.30;;;17.60;83.00;;;;;;4965868;28;20023;-86
2022/05/30 10:11:35;;;;;;;2.15;0.30;;;17.50;82.60;;;;;;4971052;28;20080;-88
2022/05/30 10:14:23;;;;;;;3.20;0.40;;;17.50;83.40;;;;;;4967650;28;20030;-87
2022/05/30 10:16:50;;;;;;;2.50;0.40;;;17.50;82.40;;;;;;4970335;28;20026;-87
2022/05/30 10:19:34;;;;;;;3.53;0.60;;;17.60;81.70;;;;;;4972259;28;20061;-88
2022/05/30 10:28:36;;;;;;;3.78;0.32;;;18.10;81.50;;;;;;4986541;28;20398;-86
2022/05/30 10:31:21;;;;;;;4.38;0.43;;;18.10;80.30;;;;;;4963034;28;20026;-87
2022/05/30 10:34:21;;;;;;;3.17;0.40;;;18.10;80.90;;;;;;4967530;28;20030;-87
2022/05/30 10:37:24;;;;;;;2.38;0.30;;;18.10;81.50;;;;;;4975122;28;20041;-87
2022/05/30 10:40:40;;;;;;;2.22;0.40;;;18.00;81.10;;;;;;4993248;28;20022;-87
2022/05/30 10:43:23;;;;;;;3.00;0.30;;;18.10;81.20;;;;;;4942499;28;20514;-87
2022/05/30 10:45:57;;;;;;;4.45;0.40;;;18.10;80.70;;;;;;4971881;28;20035;-87
2022/05/30 10:48:34;;;;;;;2.00;0.20;;;18.20;77.60;;;;;;4965291;28;20031;-87
2022/05/30 10:51:08;;;;;;;2.83;0.25;;;18.20;77.00;;;;;;4956712;28;20506;-87
2022/05/30 10:53:59;;;;;;;1.50;0.20;;;18.40;77.40;;;;;;4968941;28;20034;-87
2022/05/30 10:56:29;;;;;;;2.08;0.40;;;18.50;76.10;;;;;;4991928;28;20024;-87
2022/05/30 10:59:10;;;;;;;3.47;0.30;;;18.50;75.00;;;;;;4967376;28;20121;-88
2022/05/30 11:01:47;;;;;;;1.55;0.63;;;18.50;73.80;;;;;;4976151;28;20078;-87
2022/05/30 11:04:23;;;;;;;2.47;0.30;;;18.40;73.00;;;;;;4968271;28;20027;-87
2022/05/30 11:06:50;;;;;;;2.80;0.30;;;18.40;72.90;;;;;;4959277;28;20043;-86
2022/05/30 11:09:30;;;;;;;1.08;0.30;;;18.60;72.20;;;;;;4972859;28;20078;-85
2022/05/30 11:12:05;;;;;;;1.83;0.50;;;18.60;71.50;;;;;;4972500;28;20120;-86
2022/05/30 11:15:02;;;;;;;3.70;0.43;;;18.70;71.50;;;;;;4975965;28;20026;-86
2022/05/30 11:17:40;;;;;;;3.25;0.60;;;18.80;73.00;;;;;;4965361;28;20027;-86
2022/05/30 11:20:16;;;;;;;4.72;0.60;;;18.90;72.40;;;;;;4972805;28;20030;-87
2022/05/30 11:22:46;;;;;;;2.95;0.40;;;19.10;72.00;;;;;;4993974;28;20031;-86
2022/05/30 11:25:16;;;;;;;5.15;0.63;;;19.10;71.90;;;;;;4962003;28;20029;-87
2022/05/30 11:27:51;;;;;;;6.18;0.52;;;19.00;72.00;;;;;;4970531;28;20035;-87
2022/05/30 11:30:23;;;;;;;2.67;0.85;;;19.00;71.80;;;;;;4995994;28;20058;-86
2022/05/30 11:32:51;;;;;;;2.65;0.45;;;19.00;70.70;;;;;;4970294;28;20037;-87
2022/05/30 11:35:35;;;;;;;2.78;0.70;;;18.80;71.30;;;;;;4968287;28;20118;-86
2022/05/30 11:38:21;;;;;;;3.10;0.60;;;18.80;71.10;;;;;;4991408;28;20116;-87
2022/05/30 11:41:19;;;;;;;4.85;0.70;;;18.80;71.20;;;;;;4978894;28;20542;-86
2022/05/30 11:44:18;;;;;;;4.22;0.65;;;18.90;72.00;;;;;;4970927;28;20093;-87
2022/05/30 11:47:12;;;;;;;1.92;0.40;;;19.10;72.30;;;;;;4962767;28;20053;-87
2022/05/30 11:49:50;;;;;;;6.28;0.50;;;19.30;72.10;;;;;;4977433;28;20027;-85
2022/05/30 11:52:44;;;;;;;2.38;0.50;;;19.60;71.10;;;;;;4978013;28;20407;-86
2022/05/30 11:55:17;;;;;;;2.75;0.47;;;19.60;70.40;;;;;;4967379;28;20042;-85
2022/05/30 11:57:47;;;;;;;7.97;0.70;;;19.60;69.80;;;;;;4976498;28;20557;-84
2022/05/30 12:00:49;;;;;;;2.10;0.60;;;19.30;69.70;;;;;;4971199;28;20404;-87
2022/05/30 12:03:52;;;;;;;5.53;0.40;;;19.00;70.20;;;;;;4969318;28;20498;-86
2022/05/30 12:06:54;;;;;;;3.55;0.30;;;19.20;70.70;;;;;;4975218;28;20035;-87
2022/05/30 12:09:57;;;;;;;2.88;0.60;;;19.40;68.30;;;;;;4968454;28;20030;-86
2022/05/30 12:12:38;;;;;;;3.20;0.47;;;19.40;67.60;;;;;;4962908;28;20556;-88
2022/05/30 12:15:40;;;;;;;2.95;0.40;;;19.50;67.40;;;;;;4973295;28;20031;-87
2022/05/30 12:24:19;;;;;;;3.10;0.40;;;19.70;66.60;;;;;;4996080;28;20406;-88
2022/05/30 12:26:53;;;;;;;4.47;0.50;;;19.70;66.50;;;;;;4978346;28;20042;-87
2022/05/30 12:29:42;;;;;;;2.15;0.50;;;19.70;65.70;;;;;;4973600;28;20027;-87
2022/05/30 12:32:29;;;;;;;3.40;0.68;;;19.70;64.80;;;;;;4974063;28;20451;-87
2022/05/30 12:34:58;;;;;;;1.65;0.43;;;19.50;65.30;;;;;;4976258;28;20026;-86
2022/05/30 12:37:51;;;;;;;3.80;0.40;;;19.50;65.30;;;;;;4975050;28;20097;-86
2022/05/30 12:40:25;;;;;;;4.85;0.45;;;19.60;65.30;;;;;;4975328;28;20034;-86
2022/05/30 12:42:57;;;;;;;2.42;0.40;;;19.70;66.10;;;;;;4977768;28;20109;-87
2022/05/30 12:45:43;;;;;;;4.30;0.60;;;19.70;65.60;;;;;;4987956;28;20034;-87
2022/05/30 12:48:41;;;;;;;5.90;0.50;;;19.70;65.40;;;;;;4968382;28;20058;-86
2022/05/30 12:51:19;;;;;;;2.63;0.50;;;19.80;65.00;;;;;;4893662;28;20037;-87
2022/05/30 12:54:03;;;;;;;3.72;0.40;;;19.80;65.10;;;;;;4975402;28;20026;-86
2022/05/30 12:56:37;;;;;;;2.47;0.60;;;19.80;65.30;;;;;;4977595;28;20112;-86
2022/05/30 12:59:03;;;;;;;7.43;0.57;;;19.90;65.20;;;;;;4960447;28;20090;-86
2022/05/30 13:01:49;;;;;;;5.88;0.60;;;19.80;63.70;;;;;;4975549;28;20101;-86
2022/05/30 13:04:27;;;;;;;2.50;0.52;;;19.70;63.10;;;;;;4967906;28;20372;-86
2022/05/30 13:06:58;;;;;;;2.13;0.40;;;19.50;63.70;;;;;;4975449;28;20035;-86
2022/05/30 13:09:33;;;;;;;2.03;0.40;;;19.50;63.80;;;;;;4987400;28;20031;-86
2022/05/30 13:12:11;;;;;;;2.13;0.30;;;19.50;62.90;;;;;;4994925;28;20030;-85
2022/05/30 13:14:37;;;;;;;3.35;0.55;;;19.50;62.40;;;;;;4972203;28;20030;-86
2022/05/30 13:17:05;;;;;;;1.92;0.50;;;19.50;62.20;;;;;;4989323;28;20023;-86
2022/05/30 13:19:31;;;;;;;1.10;0.30;;;19.40;61.80;;;;;;4971276;28;20056;-86
2022/05/30 13:21:57;;;;;;;2.58;0.43;;;19.40;61.50;;;;;;4976547;28;20033;-86
2022/05/30 13:24:38;;;;;;;2.83;0.30;;;19.30;61.80;;;;;;4973355;28;20517;-86
2022/05/30 13:27:04;;;;;;;2.25;0.40;;;19.30;62.70;;;;;;4957588;28;20046;-86
2022/05/30 13:29:36;;;;;;;2.58;0.60;;;19.40;62.20;;;;;;4969285;28;20510;-86
2022/05/30 13:32:04;;;;;;;3.35;0.43;;;19.40;62.00;;;;;;4975046;28;20071;-86
2022/05/30 13:34:32;;;;;;;4.97;0.65;;;19.40;62.00;;;;;;4970389;28;20033;-87